sensor_id;sensor_type;location;lat;lon;timestamp;temperature;humidity
46890;DHT22;32625;51.080;16.970;2024-02-26T00:00:14;3.60;99.90
46890;DHT22;32625;51.080;16.970;2024-02-26T00:02:41;3.60;99.90
46890;DHT22;32625;51.080;16.970;2024-02-26T00:05:09;3.60;99.90
46890;DHT22;32625;51.080;16.970;2024-02-26T00:07:36;3.60;99.90
46890;DHT22;32625;51.080;16.970;2024-02-26T00:10:03;3.50;99.90
46890;DHT22;32625;51.080;16.970;2024-02-26T00:12:30;3.50;99.90
46890;DHT22;32625;51.080;16.970;2024-02-26T00:14:57;3.40;99.90
46890;DHT22;32625;51.080;16.970;2024-02-26T00:17:25;3.40;99.90
46890;DHT22;32625;51.080;16.970;2024-02-26T00:19:52;3.40;99.90
46890;DHT22;32625;51.080;16.970;2024-02-26T00:22:20;3.40;99.90
46890;DHT22;32625;51.080;16.970;2024-02-26T00:24:48;3.40;99.90
46890;DHT22;32625;51.080;16.970;2024-02-26T00:27:16;3.30;99.90
46890;DHT22;32625;51.080;16.970;2024-02-26T00:29:43;3.40;99.90
46890;DHT22;32625;51.080;16.970;2024-02-26T00:32:10;3.30;99.90
46890;DHT22;32625;51.080;16.970;2024-02-26T00:34:37;3.30;99.90
46890;DHT22;32625;51.080;16.970;2024-02-26T00:37:04;3.40;99.90
46890;DHT22;32625;51.080;16.970;2024-02-26T00:39:31;3.30;99.90
46890;DHT22;32625;51.080;16.970;2024-02-26T00:41:58;3.30;99.90
46890;DHT22;32625;51.080;16.970;2024-02-26T00:44:25;3.30;99.90
46890;DHT22;32625;51.080;16.970;2024-02-26T00:46:52;3.30;99.90
46890;DHT22;32625;51.080;16.970;2024-02-26T00:49:19;3.30;99.90
46890;DHT22;32625;51.080;16.970;2024-02-26T00:51:46;3.30;99.90
46890;DHT22;32625;51.080;16.970;2024-02-26T00:54:13;3.30;99.90
46890;DHT22;32625;51.080;16.970;2024-02-26T00:56:41;3.30;99.90
46890;DHT22;32625;51.080;16.970;2024-02-26T00:59:08;3.30;99.90
46890;DHT22;32625;51.080;16.970;2024-02-26T01:01:35;3.30;99.90
46890;DHT22;32625;51.080;16.970;2024-02-26T01:04:02;3.30;99.90
46890;DHT22;32625;51.080;16.970;2024-02-26T01:06:30;3.30;99.90
46890;DHT22;32625;51.080;16.970;2024-02-26T01:08:57;3.30;99.90
46890;DHT22;32625;51.080;16.970;2024-02-26T01:11:24;3.30;99.90
46890;DHT22;32625;51.080;16.970;2024-02-26T01:13:51;3.20;99.90
46890;DHT22;32625;51.080;16.970;2024-02-26T01:16:23;3.20;99.90
46890;DHT22;32625;51.080;16.970;2024-02-26T01:18:50;3.20;99.90
46890;DHT22;32625;51.080;16.970;2024-02-26T01:21:18;3.20;99.90
46890;DHT22;32625;51.080;16.970;2024-02-26T01:23:45;3.30;99.90
46890;DHT22;32625;51.080;16.970;2024-02-26T01:26:12;3.30;99.90
46890;DHT22;32625;51.080;16.970;2024-02-26T01:28:39;3.30;99.90
46890;DHT22;32625;51.080;16.970;2024-02-26T01:31:06;3.30;99.90
46890;DHT22;32625;51.080;16.970;2024-02-26T01:33:35;3.30;99.90
46890;DHT22;32625;51.080;16.970;2024-02-26T01:36:03;3.30;99.90
46890;DHT22;32625;51.080;16.970;2024-02-26T01:38:30;3.30;99.90
46890;DHT22;32625;51.080;16.970;2024-02-26T01:40:57;3.30;99.90
46890;DHT22;32625;51.080;16.970;2024-02-26T01:43:24;3.30;99.90
46890;DHT22;32625;51.080;16.970;2024-02-26T01:45:51;3.30;99.90
46890;DHT22;32625;51.080;16.970;2024-02-26T01:48:18;3.30;99.90
46890;DHT22;32625;51.080;16.970;2024-02-26T01:50:45;3.20;99.90
46890;DHT22;32625;51.080;16.970;2024-02-26T01:53:13;3.20;99.90
46890;DHT22;32625;51.080;16.970;2024-02-26T01:55:40;3.20;99.90
46890;DHT22;32625;51.080;16.970;2024-02-26T01:58:08;3.20;99.90
46890;DHT22;32625;51.080;16.970;2024-02-26T02:00:36;3.20;99.90
46890;DHT22;32625;51.080;16.970;2024-02-26T02:03:03;3.20;99.90
46890;DHT22;32625;51.080;16.970;2024-02-26T02:05:31;3.10;99.90
46890;DHT22;32625;51.080;16.970;2024-02-26T02:07:59;3.10;99.90
46890;DHT22;32625;51.080;16.970;2024-02-26T02:10:27;3.10;99.90
46890;DHT22;32625;51.080;16.970;2024-02-26T02:12:54;3.10;99.90
46890;DHT22;32625;51.080;16.970;2024-02-26T02:15:21;3.10;99.90
46890;DHT22;32625;51.080;16.970;2024-02-26T02:17:49;3.10;99.90
46890;DHT22;32625;51.080;16.970;2024-02-26T02:20:17;3.10;99.90
46890;DHT22;32625;51.080;16.970;2024-02-26T02:22:47;3.10;99.90
46890;DHT22;32625;51.080;16.970;2024-02-26T02:25:14;3.10;99.90
46890;DHT22;32625;51.080;16.970;2024-02-26T02:27:42;3.00;99.90
46890;DHT22;32625;51.080;16.970;2024-02-26T02:30:10;3.00;99.90
46890;DHT22;32625;51.080;16.970;2024-02-26T02:32:39;3.00;99.90
46890;DHT22;32625;51.080;16.970;2024-02-26T02:35:08;2.90;99.90
46890;DHT22;32625;51.080;16.970;2024-02-26T02:37:35;2.90;99.90
46890;DHT22;32625;51.080;16.970;2024-02-26T02:40:04;2.90;99.90
46890;DHT22;32625;51.080;16.970;2024-02-26T02:42:32;2.90;99.90
46890;DHT22;32625;51.080;16.970;2024-02-26T02:44:59;2.90;99.90
46890;DHT22;32625;51.080;16.970;2024-02-26T02:47:26;2.90;99.90
46890;DHT22;32625;51.080;16.970;2024-02-26T02:49:53;2.90;99.90
46890;DHT22;32625;51.080;16.970;2024-02-26T02:52:20;2.90;99.90
46890;DHT22;32625;51.080;16.970;2024-02-26T02:54:47;2.90;99.90
46890;DHT22;32625;51.080;16.970;2024-02-26T02:57:14;2.90;99.90
46890;DHT22;32625;51.080;16.970;2024-02-26T02:59:41;2.90;99.90
46890;DHT22;32625;51.080;16.970;2024-02-26T03:02:08;2.90;99.90
46890;DHT22;32625;51.080;16.970;2024-02-26T03:04:35;2.90;99.90
46890;DHT22;32625;51.080;16.970;2024-02-26T03:07:02;2.90;99.90
46890;DHT22;32625;51.080;16.970;2024-02-26T03:09:29;2.90;99.90
46890;DHT22;32625;51.080;16.970;2024-02-26T03:11:57;2.80;99.90
46890;DHT22;32625;51.080;16.970;2024-02-26T03:14:24;2.80;99.90
46890;DHT22;32625;51.080;16.970;2024-02-26T03:16:55;2.90;99.90
46890;DHT22;32625;51.080;16.970;2024-02-26T03:19:22;2.80;99.90
46890;DHT22;32625;51.080;16.970;2024-02-26T03:21:51;2.90;99.90
46890;DHT22;32625;51.080;16.970;2024-02-26T03:24:18;2.90;99.90
46890;DHT22;32625;51.080;16.970;2024-02-26T03:26:45;2.90;99.90
46890;DHT22;32625;51.080;16.970;2024-02-26T03:29:12;2.90;99.90
46890;DHT22;32625;51.080;16.970;2024-02-26T03:31:39;2.80;99.90
46890;DHT22;32625;51.080;16.970;2024-02-26T03:34:06;2.80;99.90
46890;DHT22;32625;51.080;16.970;2024-02-26T03:36:33;2.70;99.90
46890;DHT22;32625;51.080;16.970;2024-02-26T03:39:00;2.80;99.90
46890;DHT22;32625;51.080;16.970;2024-02-26T03:41:28;2.80;99.90
46890;DHT22;32625;51.080;16.970;2024-02-26T03:43:55;2.70;99.90
46890;DHT22;32625;51.080;16.970;2024-02-26T03:46:23;2.70;99.90
46890;DHT22;32625;51.080;16.970;2024-02-26T03:48:50;2.70;99.90
46890;DHT22;32625;51.080;16.970;2024-02-26T03:51:17;2.70;99.90
46890;DHT22;32625;51.080;16.970;2024-02-26T03:53:44;2.70;99.90
46890;DHT22;32625;51.080;16.970;2024-02-26T03:56:12;2.60;99.90
46890;DHT22;32625;51.080;16.970;2024-02-26T03:58:40;2.60;99.90
46890;DHT22;32625;51.080;16.970;2024-02-26T04:01:08;2.60;99.90
46890;DHT22;32625;51.080;16.970;2024-02-26T04:03:35;2.60;99.90
46890;DHT22;32625;51.080;16.970;2024-02-26T04:06:02;2.70;99.90
46890;DHT22;32625;51.080;16.970;2024-02-26T04:08:30;2.70;99.90
46890;DHT22;32625;51.080;16.970;2024-02-26T04:10:57;2.70;99.90
46890;DHT22;32625;51.080;16.970;2024-02-26T04:13:25;2.70;99.90
46890;DHT22;32625;51.080;16.970;2024-02-26T04:15:52;2.60;99.90
46890;DHT22;32625;51.080;16.970;2024-02-26T04:18:19;2.60;99.90
46890;DHT22;32625;51.080;16.970;2024-02-26T04:20:46;2.60;99.90
46890;DHT22;32625;51.080;16.970;2024-02-26T04:23:14;2.60;99.90
46890;DHT22;32625;51.080;16.970;2024-02-26T04:25:41;2.60;99.90
46890;DHT22;32625;51.080;16.970;2024-02-26T04:28:08;2.60;99.90
46890;DHT22;32625;51.080;16.970;2024-02-26T04:30:35;2.60;99.90
46890;DHT22;32625;51.080;16.970;2024-02-26T04:33:02;2.60;99.90
46890;DHT22;32625;51.080;16.970;2024-02-26T04:35:29;2.50;99.90
46890;DHT22;32625;51.080;16.970;2024-02-26T04:37:56;2.50;99.90
46890;DHT22;32625;51.080;16.970;2024-02-26T04:40:24;2.50;99.90
46890;DHT22;32625;51.080;16.970;2024-02-26T04:42:51;2.40;99.90
46890;DHT22;32625;51.080;16.970;2024-02-26T04:45:18;2.40;99.90
46890;DHT22;32625;51.080;16.970;2024-02-26T04:47:46;2.40;99.90
46890;DHT22;32625;51.080;16.970;2024-02-26T04:50:13;2.40;99.90
46890;DHT22;32625;51.080;16.970;2024-02-26T04:52:41;2.30;99.90
46890;DHT22;32625;51.080;16.970;2024-02-26T04:55:08;2.30;99.90
46890;DHT22;32625;51.080;16.970;2024-02-26T04:57:35;2.20;99.90
46890;DHT22;32625;51.080;16.970;2024-02-26T05:00:03;2.30;99.90
46890;DHT22;32625;51.080;16.970;2024-02-26T05:02:31;2.30;99.90
46890;DHT22;32625;51.080;16.970;2024-02-26T05:05:00;2.20;99.90
46890;DHT22;32625;51.080;16.970;2024-02-26T05:07:27;2.20;99.90
46890;DHT22;32625;51.080;16.970;2024-02-26T05:09:54;2.10;99.90
46890;DHT22;32625;51.080;16.970;2024-02-26T05:12:22;2.20;99.90
46890;DHT22;32625;51.080;16.970;2024-02-26T05:14:49;2.20;99.90
46890;DHT22;32625;51.080;16.970;2024-02-26T05:17:16;2.20;99.90
46890;DHT22;32625;51.080;16.970;2024-02-26T05:19:43;2.20;99.90
46890;DHT22;32625;51.080;16.970;2024-02-26T05:22:10;2.20;99.90
46890;DHT22;32625;51.080;16.970;2024-02-26T05:24:38;2.20;99.90
46890;DHT22;32625;51.080;16.970;2024-02-26T05:27:06;2.20;99.90
46890;DHT22;32625;51.080;16.970;2024-02-26T05:29:34;2.20;99.90
46890;DHT22;32625;51.080;16.970;2024-02-26T05:32:01;2.20;99.90
46890;DHT22;32625;51.080;16.970;2024-02-26T05:34:28;2.20;99.90
46890;DHT22;32625;51.080;16.970;2024-02-26T05:36:57;2.20;99.90
46890;DHT22;32625;51.080;16.970;2024-02-26T05:39:24;2.20;99.90
46890;DHT22;32625;51.080;16.970;2024-02-26T05:41:51;2.30;99.90
46890;DHT22;32625;51.080;16.970;2024-02-26T05:44:18;2.30;99.90
46890;DHT22;32625;51.080;16.970;2024-02-26T05:46:45;2.20;99.90
46890;DHT22;32625;51.080;16.970;2024-02-26T05:49:11;2.20;99.90
46890;DHT22;32625;51.080;16.970;2024-02-26T05:51:39;2.30;99.90
46890;DHT22;32625;51.080;16.970;2024-02-26T05:54:06;2.30;99.90
46890;DHT22;32625;51.080;16.970;2024-02-26T05:56:33;2.30;99.90
46890;DHT22;32625;51.080;16.970;2024-02-26T05:59:00;2.40;99.90
46890;DHT22;32625;51.080;16.970;2024-02-26T06:01:27;2.40;99.90
46890;DHT22;32625;51.080;16.970;2024-02-26T06:03:54;2.50;99.90
46890;DHT22;32625;51.080;16.970;2024-02-26T06:06:21;2.50;99.90
46890;DHT22;32625;51.080;16.970;2024-02-26T06:08:50;2.60;99.90
46890;DHT22;32625;51.080;16.970;2024-02-26T06:11:17;2.60;99.90
46890;DHT22;32625;51.080;16.970;2024-02-26T06:13:45;2.70;99.90
46890;DHT22;32625;51.080;16.970;2024-02-26T06:16:12;2.70;99.90
46890;DHT22;32625;51.080;16.970;2024-02-26T06:18:39;2.80;99.90
46890;DHT22;32625;51.080;16.970;2024-02-26T06:21:09;2.80;99.90
46890;DHT22;32625;51.080;16.970;2024-02-26T06:23:38;2.80;99.90
46890;DHT22;32625;51.080;16.970;2024-02-26T06:26:05;2.90;99.90
46890;DHT22;32625;51.080;16.970;2024-02-26T06:28:32;3.00;99.90
46890;DHT22;32625;51.080;16.970;2024-02-26T06:31:00;3.10;99.90
46890;DHT22;32625;51.080;16.970;2024-02-26T06:33:27;3.10;99.90
46890;DHT22;32625;51.080;16.970;2024-02-26T06:35:54;3.20;99.90
46890;DHT22;32625;51.080;16.970;2024-02-26T06:38:22;3.20;99.90
46890;DHT22;32625;51.080;16.970;2024-02-26T06:40:49;3.20;99.90
46890;DHT22;32625;51.080;16.970;2024-02-26T06:43:16;3.40;99.90
46890;DHT22;32625;51.080;16.970;2024-02-26T06:45:43;3.40;99.90
46890;DHT22;32625;51.080;16.970;2024-02-26T06:48:10;3.40;99.90
46890;DHT22;32625;51.080;16.970;2024-02-26T06:50:37;3.40;99.90
46890;DHT22;32625;51.080;16.970;2024-02-26T06:53:04;3.40;99.90
46890;DHT22;32625;51.080;16.970;2024-02-26T06:55:32;3.50;99.90
46890;DHT22;32625;51.080;16.970;2024-02-26T06:57:59;3.50;99.90
46890;DHT22;32625;51.080;16.970;2024-02-26T07:00:25;3.50;99.90
46890;DHT22;32625;51.080;16.970;2024-02-26T07:02:52;3.50;99.90
46890;DHT22;32625;51.080;16.970;2024-02-26T07:05:20;3.60;99.90
46890;DHT22;32625;51.080;16.970;2024-02-26T07:07:47;3.60;99.90
46890;DHT22;32625;51.080;16.970;2024-02-26T07:10:14;3.60;99.90
46890;DHT22;32625;51.080;16.970;2024-02-26T07:12:41;3.70;99.90
46890;DHT22;32625;51.080;16.970;2024-02-26T07:15:09;3.80;99.90
46890;DHT22;32625;51.080;16.970;2024-02-26T07:17:36;3.80;99.90
46890;DHT22;32625;51.080;16.970;2024-02-26T07:20:04;3.90;99.90
46890;DHT22;32625;51.080;16.970;2024-02-26T07:22:36;3.90;99.90
46890;DHT22;32625;51.080;16.970;2024-02-26T07:25:03;3.90;99.90
46890;DHT22;32625;51.080;16.970;2024-02-26T07:27:30;4.00;99.90
46890;DHT22;32625;51.080;16.970;2024-02-26T07:29:57;4.00;99.90
46890;DHT22;32625;51.080;16.970;2024-02-26T07:32:24;4.10;99.90
46890;DHT22;32625;51.080;16.970;2024-02-26T07:34:51;4.10;99.90
46890;DHT22;32625;51.080;16.970;2024-02-26T07:37:18;4.20;99.90
46890;DHT22;32625;51.080;16.970;2024-02-26T07:39:45;4.30;99.90
46890;DHT22;32625;51.080;16.970;2024-02-26T07:42:12;4.30;99.90
46890;DHT22;32625;51.080;16.970;2024-02-26T07:44:39;4.40;99.90
46890;DHT22;32625;51.080;16.970;2024-02-26T07:47:10;4.50;99.90
46890;DHT22;32625;51.080;16.970;2024-02-26T07:49:37;4.50;99.90
46890;DHT22;32625;51.080;16.970;2024-02-26T07:52:05;4.60;99.90
46890;DHT22;32625;51.080;16.970;2024-02-26T07:54:32;4.70;99.90
46890;DHT22;32625;51.080;16.970;2024-02-26T07:56:59;4.70;99.90
46890;DHT22;32625;51.080;16.970;2024-02-26T07:59:28;4.80;99.90
46890;DHT22;32625;51.080;16.970;2024-02-26T08:01:55;4.90;99.90
46890;DHT22;32625;51.080;16.970;2024-02-26T08:04:25;5.00;99.90
46890;DHT22;32625;51.080;16.970;2024-02-26T08:06:53;5.00;99.90
46890;DHT22;32625;51.080;16.970;2024-02-26T08:09:21;5.10;99.90
46890;DHT22;32625;51.080;16.970;2024-02-26T08:11:48;5.20;99.90
46890;DHT22;32625;51.080;16.970;2024-02-26T08:14:15;5.20;99.90
46890;DHT22;32625;51.080;16.970;2024-02-26T08:16:42;5.30;99.90
46890;DHT22;32625;51.080;16.970;2024-02-26T08:19:09;5.40;99.90
46890;DHT22;32625;51.080;16.970;2024-02-26T08:21:38;5.50;99.90
46890;DHT22;32625;51.080;16.970;2024-02-26T08:24:05;5.50;99.90
46890;DHT22;32625;51.080;16.970;2024-02-26T08:26:32;5.70;99.90
46890;DHT22;32625;51.080;16.970;2024-02-26T08:28:59;5.80;99.90
46890;DHT22;32625;51.080;16.970;2024-02-26T08:31:26;5.90;99.90
46890;DHT22;32625;51.080;16.970;2024-02-26T08:33:54;6.00;99.90
46890;DHT22;32625;51.080;16.970;2024-02-26T08:36:22;6.10;99.90
46890;DHT22;32625;51.080;16.970;2024-02-26T08:38:49;6.20;99.90
46890;DHT22;32625;51.080;16.970;2024-02-26T08:41:16;6.30;99.90
46890;DHT22;32625;51.080;16.970;2024-02-26T08:43:43;6.40;99.90
46890;DHT22;32625;51.080;16.970;2024-02-26T08:46:09;6.50;99.90
46890;DHT22;32625;51.080;16.970;2024-02-26T08:48:39;6.50;99.90
46890;DHT22;32625;51.080;16.970;2024-02-26T08:51:08;6.60;99.90
46890;DHT22;32625;51.080;16.970;2024-02-26T08:53:35;6.70;99.90
46890;DHT22;32625;51.080;16.970;2024-02-26T08:56:10;6.80;99.90
46890;DHT22;32625;51.080;16.970;2024-02-26T08:58:45;7.00;99.90
46890;DHT22;32625;51.080;16.970;2024-02-26T09:01:15;7.00;99.90
46890;DHT22;32625;51.080;16.970;2024-02-26T09:03:43;7.10;99.90
46890;DHT22;32625;51.080;16.970;2024-02-26T09:06:10;7.10;99.90
46890;DHT22;32625;51.080;16.970;2024-02-26T09:08:38;7.20;99.90
46890;DHT22;32625;51.080;16.970;2024-02-26T09:11:05;7.30;99.90
46890;DHT22;32625;51.080;16.970;2024-02-26T09:13:32;7.40;99.90
46890;DHT22;32625;51.080;16.970;2024-02-26T09:15:59;7.50;99.90
46890;DHT22;32625;51.080;16.970;2024-02-26T09:18:27;7.60;99.90
46890;DHT22;32625;51.080;16.970;2024-02-26T09:20:55;7.70;99.90
46890;DHT22;32625;51.080;16.970;2024-02-26T09:23:23;7.80;99.90
46890;DHT22;32625;51.080;16.970;2024-02-26T09:25:50;7.90;99.90
46890;DHT22;32625;51.080;16.970;2024-02-26T09:28:17;8.10;99.90
46890;DHT22;32625;51.080;16.970;2024-02-26T09:30:45;8.20;99.90
46890;DHT22;32625;51.080;16.970;2024-02-26T09:33:14;8.30;99.90
46890;DHT22;32625;51.080;16.970;2024-02-26T09:35:41;8.50;99.90
46890;DHT22;32625;51.080;16.970;2024-02-26T09:38:08;8.50;99.90
46890;DHT22;32625;51.080;16.970;2024-02-26T09:40:36;8.60;99.90
46890;DHT22;32625;51.080;16.970;2024-02-26T09:43:05;8.70;99.90
46890;DHT22;32625;51.080;16.970;2024-02-26T09:45:33;8.80;99.90
46890;DHT22;32625;51.080;16.970;2024-02-26T09:48:02;8.90;99.90
46890;DHT22;32625;51.080;16.970;2024-02-26T09:50:32;9.00;99.90
46890;DHT22;32625;51.080;16.970;2024-02-26T09:52:59;9.10;99.90
46890;DHT22;32625;51.080;16.970;2024-02-26T09:55:29;9.20;99.90
46890;DHT22;32625;51.080;16.970;2024-02-26T09:57:57;9.30;99.90
46890;DHT22;32625;51.080;16.970;2024-02-26T10:00:27;9.40;99.90
46890;DHT22;32625;51.080;16.970;2024-02-26T10:03:03;9.50;99.90
46890;DHT22;32625;51.080;16.970;2024-02-26T10:05:32;9.60;99.90
46890;DHT22;32625;51.080;16.970;2024-02-26T10:08:00;9.70;99.90
46890;DHT22;32625;51.080;16.970;2024-02-26T10:10:29;9.70;99.90
46890;DHT22;32625;51.080;16.970;2024-02-26T10:12:56;9.90;99.90
46890;DHT22;32625;51.080;16.970;2024-02-26T10:15:23;9.90;99.90
46890;DHT22;32625;51.080;16.970;2024-02-26T10:17:50;9.90;99.90
46890;DHT22;32625;51.080;16.970;2024-02-26T10:20:18;10.00;99.90
46890;DHT22;32625;51.080;16.970;2024-02-26T10:22:46;10.00;99.90
46890;DHT22;32625;51.080;16.970;2024-02-26T10:25:14;10.00;99.90
46890;DHT22;32625;51.080;16.970;2024-02-26T10:27:41;10.10;99.90
46890;DHT22;32625;51.080;16.970;2024-02-26T10:30:16;10.20;99.90
46890;DHT22;32625;51.080;16.970;2024-02-26T10:32:49;10.30;99.90
46890;DHT22;32625;51.080;16.970;2024-02-26T10:35:18;10.30;99.90
46890;DHT22;32625;51.080;16.970;2024-02-26T10:37:48;10.30;99.90
46890;DHT22;32625;51.080;16.970;2024-02-26T10:40:15;10.40;99.90
46890;DHT22;32625;51.080;16.970;2024-02-26T10:42:43;10.40;99.90
46890;DHT22;32625;51.080;16.970;2024-02-26T10:45:11;10.50;99.90
46890;DHT22;32625;51.080;16.970;2024-02-26T10:47:40;10.60;99.90
46890;DHT22;32625;51.080;16.970;2024-02-26T10:50:09;10.60;99.90
46890;DHT22;32625;51.080;16.970;2024-02-26T10:52:37;10.70;99.90
46890;DHT22;32625;51.080;16.970;2024-02-26T10:55:05;10.80;99.90
46890;DHT22;32625;51.080;16.970;2024-02-26T10:57:40;10.80;99.90
46890;DHT22;32625;51.080;16.970;2024-02-26T11:00:07;10.80;99.90
46890;DHT22;32625;51.080;16.970;2024-02-26T11:02:38;10.90;99.90
46890;DHT22;32625;51.080;16.970;2024-02-26T11:05:06;10.90;99.90
46890;DHT22;32625;51.080;16.970;2024-02-26T11:07:37;11.00;99.90
46890;DHT22;32625;51.080;16.970;2024-02-26T11:10:05;11.00;99.90
46890;DHT22;32625;51.080;16.970;2024-02-26T11:12:34;10.90;99.90
46890;DHT22;32625;51.080;16.970;2024-02-26T11:15:04;11.00;99.90
46890;DHT22;32625;51.080;16.970;2024-02-26T11:17:31;11.00;99.90
46890;DHT22;32625;51.080;16.970;2024-02-26T11:20:00;11.10;99.90
46890;DHT22;32625;51.080;16.970;2024-02-26T11:22:29;11.10;99.90
46890;DHT22;32625;51.080;16.970;2024-02-26T11:24:56;11.20;99.90
46890;DHT22;32625;51.080;16.970;2024-02-26T11:27:37;11.20;99.90
46890;DHT22;32625;51.080;16.970;2024-02-26T11:30:09;11.30;99.90
46890;DHT22;32625;51.080;16.970;2024-02-26T11:32:37;11.30;99.90
46890;DHT22;32625;51.080;16.970;2024-02-26T11:35:05;11.30;99.90
46890;DHT22;32625;51.080;16.970;2024-02-26T11:37:34;11.30;99.90
46890;DHT22;32625;51.080;16.970;2024-02-26T11:40:17;11.30;99.90
46890;DHT22;32625;51.080;16.970;2024-02-26T11:42:45;11.40;99.90
46890;DHT22;32625;51.080;16.970;2024-02-26T11:48:11;11.40;99.90
46890;DHT22;32625;51.080;16.970;2024-02-26T11:50:39;11.50;99.90
46890;DHT22;32625;51.080;16.970;2024-02-26T11:53:30;11.50;99.90
46890;DHT22;32625;51.080;16.970;2024-02-26T11:58:44;11.60;99.90
46890;DHT22;32625;51.080;16.970;2024-02-26T12:04:11;11.60;99.90
46890;DHT22;32625;51.080;16.970;2024-02-26T12:06:44;11.70;99.30
46890;DHT22;32625;51.080;16.970;2024-02-26T12:09:12;11.80;99.70
46890;DHT22;32625;51.080;16.970;2024-02-26T12:11:43;11.80;99.90
46890;DHT22;32625;51.080;16.970;2024-02-26T12:14:10;11.80;99.70
46890;DHT22;32625;51.080;16.970;2024-02-26T12:16:40;11.80;98.70
46890;DHT22;32625;51.080;16.970;2024-02-26T12:19:12;11.90;98.90
46890;DHT22;32625;51.080;16.970;2024-02-26T12:21:39;12.00;98.70
46890;DHT22;32625;51.080;16.970;2024-02-26T12:24:13;12.00;99.30
46890;DHT22;32625;51.080;16.970;2024-02-26T12:26:41;12.00;98.60
46890;DHT22;32625;51.080;16.970;2024-02-26T12:29:08;12.00;98.60
46890;DHT22;32625;51.080;16.970;2024-02-26T12:31:36;12.10;97.40
46890;DHT22;32625;51.080;16.970;2024-02-26T12:34:04;12.10;98.00
46890;DHT22;32625;51.080;16.970;2024-02-26T12:36:36;12.10;98.20
46890;DHT22;32625;51.080;16.970;2024-02-26T12:39:03;12.10;98.80
46890;DHT22;32625;51.080;16.970;2024-02-26T12:41:33;12.10;97.60
46890;DHT22;32625;51.080;16.970;2024-02-26T12:44:00;12.10;97.00
46890;DHT22;32625;51.080;16.970;2024-02-26T12:46:28;12.10;96.80
46890;DHT22;32625;51.080;16.970;2024-02-26T12:48:56;12.10;96.50
46890;DHT22;32625;51.080;16.970;2024-02-26T12:51:26;12.10;96.50
46890;DHT22;32625;51.080;16.970;2024-02-26T12:53:55;12.10;96.10
46890;DHT22;32625;51.080;16.970;2024-02-26T12:56:23;12.10;97.10
46890;DHT22;32625;51.080;16.970;2024-02-26T12:58:51;12.10;96.80
46890;DHT22;32625;51.080;16.970;2024-02-26T13:01:23;12.10;97.90
46890;DHT22;32625;51.080;16.970;2024-02-26T13:03:51;12.10;96.90
46890;DHT22;32625;51.080;16.970;2024-02-26T13:06:20;12.10;97.00
46890;DHT22;32625;51.080;16.970;2024-02-26T13:08:49;12.20;96.70
46890;DHT22;32625;51.080;16.970;2024-02-26T13:11:16;12.20;96.90
46890;DHT22;32625;51.080;16.970;2024-02-26T13:13:47;12.20;97.00
46890;DHT22;32625;51.080;16.970;2024-02-26T13:16:16;12.20;97.40
46890;DHT22;32625;51.080;16.970;2024-02-26T13:18:43;12.20;96.70
46890;DHT22;32625;51.080;16.970;2024-02-26T13:21:13;12.30;95.30
46890;DHT22;32625;51.080;16.970;2024-02-26T13:23:41;12.30;95.80
46890;DHT22;32625;51.080;16.970;2024-02-26T13:26:11;12.30;96.20
46890;DHT22;32625;51.080;16.970;2024-02-26T13:28:38;12.20;96.00
46890;DHT22;32625;51.080;16.970;2024-02-26T13:31:05;12.20;96.00
46890;DHT22;32625;51.080;16.970;2024-02-26T13:33:34;12.30;95.30
46890;DHT22;32625;51.080;16.970;2024-02-26T13:36:03;12.30;95.00
46890;DHT22;32625;51.080;16.970;2024-02-26T13:38:30;12.30;94.00
46890;DHT22;32625;51.080;16.970;2024-02-26T13:40:57;12.20;95.40
46890;DHT22;32625;51.080;16.970;2024-02-26T13:43:25;12.20;95.40
46890;DHT22;32625;51.080;16.970;2024-02-26T13:45:52;12.20;96.60
46890;DHT22;32625;51.080;16.970;2024-02-26T13:48:19;12.20;96.30
46890;DHT22;32625;51.080;16.970;2024-02-26T13:50:46;12.10;97.60
46890;DHT22;32625;51.080;16.970;2024-02-26T13:53:13;12.10;97.70
46890;DHT22;32625;51.080;16.970;2024-02-26T13:55:41;12.10;98.30
46890;DHT22;32625;51.080;16.970;2024-02-26T13:58:12;12.00;98.60
46890;DHT22;32625;51.080;16.970;2024-02-26T14:00:41;12.00;98.70
46890;DHT22;32625;51.080;16.970;2024-02-26T14:03:09;12.00;97.90
46890;DHT22;32625;51.080;16.970;2024-02-26T14:05:37;12.00;98.80
46890;DHT22;32625;51.080;16.970;2024-02-26T14:08:04;12.00;98.70
46890;DHT22;32625;51.080;16.970;2024-02-26T14:10:32;12.00;97.90
46890;DHT22;32625;51.080;16.970;2024-02-26T14:12:59;12.10;98.00
46890;DHT22;32625;51.080;16.970;2024-02-26T14:15:28;12.00;98.00
46890;DHT22;32625;51.080;16.970;2024-02-26T14:17:56;12.00;98.00
46890;DHT22;32625;51.080;16.970;2024-02-26T14:20:24;12.00;98.20
46890;DHT22;32625;51.080;16.970;2024-02-26T14:22:51;12.00;98.60
46890;DHT22;32625;51.080;16.970;2024-02-26T14:25:22;11.90;99.90
46890;DHT22;32625;51.080;16.970;2024-02-26T14:27:50;11.90;99.90
46890;DHT22;32625;51.080;16.970;2024-02-26T14:30:18;11.90;99.60
46890;DHT22;32625;51.080;16.970;2024-02-26T14:32:45;11.90;99.70
46890;DHT22;32625;51.080;16.970;2024-02-26T14:35:13;11.90;99.60
46890;DHT22;32625;51.080;16.970;2024-02-26T14:37:44;11.90;99.90
46890;DHT22;32625;51.080;16.970;2024-02-26T14:40:16;11.80;99.90
46890;DHT22;32625;51.080;16.970;2024-02-26T14:42:43;11.80;99.90
46890;DHT22;32625;51.080;16.970;2024-02-26T14:45:12;11.70;99.90
46890;DHT22;32625;51.080;16.970;2024-02-26T14:47:39;11.70;99.90
46890;DHT22;32625;51.080;16.970;2024-02-26T14:50:07;11.70;99.90
46890;DHT22;32625;51.080;16.970;2024-02-26T14:52:34;11.60;99.90
46890;DHT22;32625;51.080;16.970;2024-02-26T14:55:01;11.50;99.90
46890;DHT22;32625;51.080;16.970;2024-02-26T14:57:28;11.50;99.90
46890;DHT22;32625;51.080;16.970;2024-02-26T14:59:56;11.50;99.90
46890;DHT22;32625;51.080;16.970;2024-02-26T15:02:23;11.40;99.90
46890;DHT22;32625;51.080;16.970;2024-02-26T15:04:50;11.40;99.90
46890;DHT22;32625;51.080;16.970;2024-02-26T15:07:17;11.40;99.90
46890;DHT22;32625;51.080;16.970;2024-02-26T15:09:47;11.30;99.90
46890;DHT22;32625;51.080;16.970;2024-02-26T15:12:14;11.30;99.90
46890;DHT22;32625;51.080;16.970;2024-02-26T15:14:42;11.30;99.90
46890;DHT22;32625;51.080;16.970;2024-02-26T15:17:09;11.20;99.90
46890;DHT22;32625;51.080;16.970;2024-02-26T15:19:39;11.20;99.90
46890;DHT22;32625;51.080;16.970;2024-02-26T15:22:07;11.20;99.90
46890;DHT22;32625;51.080;16.970;2024-02-26T15:24:34;11.20;99.90
46890;DHT22;32625;51.080;16.970;2024-02-26T15:27:01;11.10;99.90
46890;DHT22;32625;51.080;16.970;2024-02-26T15:29:28;11.10;99.90
46890;DHT22;32625;51.080;16.970;2024-02-26T15:31:55;11.10;99.90
46890;DHT22;32625;51.080;16.970;2024-02-26T15:34:22;11.10;99.90
46890;DHT22;32625;51.080;16.970;2024-02-26T15:36:49;11.00;99.90